Flight Track Log - Related Links

Times and Time Zones

All times are in EDT time to prevent confusion due to time zone crossing. See the N921TX flight status page for this flight to view local times or setup timezone preferences in your user account.

Time Position Orientation Groundspeed Altitude Reporting Facility
EDT Latitude Longitude Course Direction KTS MPH feet Rate Location/Type
Sat 05:14:52 PM 39.0253 -95.2242 189° South 99 114 1,900  Level Kansas City Center
Sat 05:15:53 PM 39.0597 -95.2442 336° Northwest 139 160 3,900 2,496 Climbing Kansas City Center
Sat 05:16:57 PM 39.0333 -95.2808 227° Southwest 174 200 7,100 2,784 Climbing Kansas City Center
Sat 05:17:00 PM 38.5793 -95.3142 190° South  Level Estimated
Sat 05:17:58 PM 38.9914 -95.2881 188° South 163 188 9,700  Level Kansas City Center
Sat 05:18:00 PM 38.5068 -95.3260 187° South  Level FlightAware Approximate
Sat 05:18:59 PM 38.9439 -95.2972 189° South 154 177 11,900  Level Kansas City Center
Sat 05:19:00 PM 38.4348 -95.3422 187° South  Level Estimated
Sat 05:20:00 PM 38.3628 -95.3584 189° South  Level Estimated
Sat 05:20:01 PM 38.9022 -95.3039 187° South 156 180 14,100  Level Kansas City Center
Sat 05:21:02 PM 38.8636 -95.3117 189° South 148 170 15,800 1,623 Climbing Kansas City Center
Sat 05:22:03 PM 38.8144 -95.3211 189° South 161 185 17,400 1,587 Climbing Kansas City Center
Sat 05:23:03 PM 38.7692 -95.3283 187° South 169 194 19,000 1,694 Climbing Kansas City Center
Sat 05:24:07 PM 38.7194 -95.3375 188° South 162 186 20,900 1,548 Climbing Kansas City Center
Sat 05:25:07 PM 38.6783 -95.3456 189° South 158 182 22,200 1,230 Climbing Kansas City Center
Sat 05:26:09 PM 38.6353 -95.3542 189° South 162 186 23,400 1,258 Climbing Kansas City Center
Sat 05:27:11 PM 38.5856 -95.3628 188° South 162 186 24,800 1,220 Climbing Kansas City Center
Sat 05:28:12 PM 38.5417 -95.3719 189° South 165 190 25,900 1,082 Climbing Kansas City Center
Sat 05:29:13 PM 38.4900 -95.3817 188° South 168 193 27,000 1,033 Climbing Kansas City Center
Sat 05:30:14 PM 38.4433 -95.3889 187° South 175 201 28,000 968 Climbing Kansas City Center
Sat 05:31:17 PM 38.3964 -95.3975 188° South 177 204 29,000 1,113 Climbing Kansas City Center
Sat 05:32:18 PM 38.3414 -95.4081 189° South 178 205 30,300 1,180 Climbing Kansas City Center
Sat 05:33:19 PM 38.2961 -95.4158 188° South 175 201 31,400 1,161 Climbing Kansas City Center
Sat 05:34:22 PM 38.2444 -95.4236 187° South 170 196 32,700 780 Climbing Kansas City Center
Sat 05:35:22 PM 38.1997 -95.4333 190° South 170 196 33,000 537 Climbing Kansas City Center
Sat 05:36:25 PM 38.1489 -95.4433 189° South 190 219 33,800 984 Climbing Kansas City Center
Sat 05:37:24 PM 38.1000 -95.4506 187° South 156 180 35,000 585 Climbing Kansas City Center
Sat 05:38:28 PM 38.0550 -95.4603 190° South 170 196 35,000 387 Level Kansas City Center
Sat 05:39:28 PM 37.9956 -95.4697 187° South 193 222 35,800 738 Climbing Kansas City Center
Sat 05:40:30 PM 37.9536 -95.4789 190° South 162 186 36,500 387 Climbing Kansas City Center
Sat 05:42:34 PM 37.8553 -95.4939 187° South 172 198 37,000 163 Climbing Kansas City Center
Sat 05:43:34 PM 37.7989 -95.4928 179° South 195 224 37,000 50 Level Kansas City Center
Sat 05:44:35 PM 37.7361 -95.4861 175° South 218 251 37,100 290 Climbing Kansas City Center
Sat 05:45:38 PM 37.6750 -95.4825 177° South 220 253 37,600 435 Climbing Kansas City Center
Sat 05:46:39 PM 37.6142 -95.4764 175° South 218 251 38,000 197 Climbing Kansas City Center
Sat 05:47:40 PM 37.5539 -95.4744 179° South 217 250 38,000  Level Kansas City Center
Sat 05:48:43 PM 37.4894 -95.4675 175° South 228 262 38,000  Level Kansas City Center
Sat 05:49:43 PM 37.4097 -95.4611 176° South 237 273 38,000 49 Level Kansas City Center
Sat 05:50:46 PM 37.3422 -95.4583 178° South 241 277 38,100 242 Climbing Kansas City Center
Sat 05:51:47 PM 37.2750 -95.4519 176° South 242 278 38,500 443 Climbing Kansas City Center
Sat 05:52:48 PM 37.2117 -95.4475 177° South 233 268 39,000 492 Climbing Kansas City Center
Sat 05:53:49 PM 37.1522 -95.4428 176° South 221 254 39,500 484 Climbing Kansas City Center
Sat 05:54:52 PM 37.0953 -95.4392 177° South 210 242 40,000 242 Climbing Kansas City Center
Sat 05:55:53 PM 37.0372 -95.4342 176° South 207 238 40,000  Level Kansas City Center
Sat 05:56:53 PM 36.9775 -95.4292 176° South 212 244 40,000  Level Kansas City Center
Sat 05:57:57 PM 36.9025 -95.4233 176° South 222 255 40,000  Level Kansas City Center
Sat 05:58:58 PM 36.8369 -95.4194 177° South 230 265 40,000  Level Kansas City Center
Sat 05:59:59 PM 36.7717 -95.4142 176° South 235 270 40,000  Level Kansas City Center
Sat 06:00:59 PM 36.7053 -95.4092 177° South 236 272 40,000  Level Kansas City Center
Sat 06:02:04 PM 36.6375 -95.4042 177° South 240 276 40,000  Level Kansas City Center
Sat 06:03:03 PM 36.5636 -95.3986 177° South 244 281 40,000  Level Kansas City Center
Sat 06:04:06 PM 36.4942 -95.3939 177° South 247 284 40,000  Level Kansas City Center
Sat 06:05:07 PM 36.4239 -95.3878 176° South 250 288 40,000  Level Kansas City Center
Sat 06:06:08 PM 36.3525 -95.3825 177° South 252 290 40,000  Level Kansas City Center
Sat 06:07:11 PM 36.2831 -95.3764 176° South 252 290 40,000  Level Kansas City Center
Sat 06:08:10 PM 36.2125 -95.3728 178° South 253 291 40,000  Level Kansas City Center
Sat 06:09:14 PM 36.1431 -95.3672 176° South 250 288 40,000  Level Kansas City Center
Sat 06:10:15 PM 36.0592 -95.3603 176° South 251 289 40,000  Level Kansas City Center
Sat 06:11:16 PM 35.9869 -95.3553 177° South 253 291 40,000  Level Kansas City Center
Sat 06:12:17 PM 35.9175 -95.3586 182° South 250 288 40,000  Level Kansas City Center
Sat 06:13:19 PM 35.8478 -95.3619 182° South 251 289 40,000  Level Kansas City Center
Sat 06:14:20 PM 35.7772 -95.3669 183° South 252 290 40,000  Level Kansas City Center
Sat 06:15:21 PM 35.7078 -95.3708 183° South 251 289 40,000  Level Kansas City Center
Sat 06:16:22 PM 35.6378 -95.3736 182° South 251 289 40,000  Level Kansas City Center
Sat 06:16:53 PM 35.5922 -95.3817 188° South 255 293 40,000  Level Fort Worth Center
Sat 06:17:53 PM 35.5211 -95.3836 181° South 255 293 40,000 -250 Level Fort Worth Center
Sat 06:18:53 PM 35.4461 -95.3878 183° South 255 293 39,500 -500 Descending Fort Worth Center
Sat 06:19:53 PM 35.3711 -95.3922 183° South 265 305 39,000 -250 Descending Fort Worth Center
Sat 06:20:53 PM 35.2942 -95.3967 183° South 270 311 39,000  Level Fort Worth Center
Sat 06:21:53 PM 35.2211 -95.4008 183° South 270 311 39,000  Level Fort Worth Center
Sat 06:22:53 PM 35.1483 -95.4050 183° South 270 311 39,000  Level Fort Worth Center
Sat 06:23:53 PM 35.0753 -95.4094 183° South 270 311 39,000 -950 Level Fort Worth Center
Sat 06:24:53 PM 35.0003 -95.4136 183° South 270 311 37,100 -2,200 Descending Fort Worth Center
Sat 06:25:53 PM 34.9253 -95.4181 183° South 270 311 34,600 -2,450 Descending Fort Worth Center
Sat 06:26:53 PM 34.8461 -95.4200 181° South 275 316 32,200 -1,300 Descending Fort Worth Center
Sat 06:27:53 PM 34.7669 -95.4267 184° South 280 322 32,000 -100 Descending Fort Worth Center
Sat 06:28:53 PM 34.6875 -95.4133 172° South 286 329 32,000 -400 Level Fort Worth Center
Sat 06:29:53 PM 34.6264 -95.3769 154° Southeast 291 335 31,200 -950 Descending Fort Worth Center
Sat 06:30:53 PM 34.5358 -95.3286 156° South 307 353 30,100 -1,050 Descending Fort Worth Center
Sat 06:31:53 PM 34.4494 -95.2781 154° Southeast 321 369 29,100 -1,150 Descending Fort Worth Center
Sat 06:32:53 PM 34.3650 -95.2247 152° Southeast 335 386 27,800 -1,450 Descending Fort Worth Center
Sat 06:33:53 PM 34.2744 -95.1792 157° South 343 395 26,200 -1,636 Descending Fort Worth Center
Sat 06:34:54 PM 34.1861 -95.1339 157° South 343 395 24,500 -1,100 Descending Fort Worth Center
Sat 06:35:53 PM 34.0983 -95.1311 178° South 327 376 24,000 -252 Descending Fort Worth Center
Sat 06:36:53 PM 34.0411 -95.2028 226° Southwest 270 311 24,000  Level Fort Worth Center
Sat 06:37:53 PM 33.9925 -95.2767 232° Southwest 275 316 24,000  Level Fort Worth Center
Sat 06:38:53 PM 33.9414 -95.3506 230° Southwest 280 322 24,000 -100 Level Fort Worth Center
Sat 06:39:53 PM 33.8925 -95.4242 231° Southwest 286 329 23,800 -800 Descending Fort Worth Center
Sat 06:40:53 PM 33.8417 -95.4978 230° Southwest 291 335 22,400 -1,250 Descending Fort Worth Center
Sat 06:41:53 PM 33.7925 -95.5714 231° Southwest 296 341 21,300 -1,150 Descending Fort Worth Center
Sat 06:42:53 PM 33.7353 -95.6500 229° Southwest 289 333 20,100 -1,200 Descending Fort Worth Center
Sat 06:43:53 PM 33.6842 -95.7236 230° Southwest 289 333 18,900 -1,250 Descending Fort Worth Center
Sat 06:44:53 PM 33.6369 -95.7942 231° Southwest 289 333 17,600 -2,050 Descending Fort Worth Center
Sat 06:45:53 PM 33.5858 -95.8650 229° Southwest 283 326 14,800 -2,300 Descending Fort Worth Center
Sat 06:46:53 PM 33.5406 -95.9356 232° Southwest 283 326 13,000 -1,450 Descending Fort Worth Center
Sat 06:47:53 PM 33.4956 -96.0036 232° Southwest 277 319 11,900 -1,050 Descending Fort Worth Center
Sat 06:48:53 PM 33.4483 -96.0692 229° Southwest 272 313 10,900 -850 Descending Fort Worth Center
Sat 06:49:53 PM 33.4072 -96.1269 230° Southwest 252 290 10,200 -700 Descending Fort Worth Center
Sat 06:50:53 PM 33.3661 -96.1872 231° Southwest 246 283 9,500 -600 Descending Fort Worth Center
Sat 06:51:53 PM 33.3228 -96.2500 230° Southwest 246 283 9,000 -250 Descending Fort Worth Center
Sat 06:52:53 PM 33.2817 -96.3103 231° Southwest 240 276 9,000 -400 Level Fort Worth Center
Sat 06:53:53 PM 33.2425 -96.3678 231° Southwest 234 269 8,200 -1,100 Descending Fort Worth Center
Sat 06:54:53 PM 33.1842 -96.4081 210° Southwest 235 270 6,800 -1,550 Descending Fort Worth Center
Sat 06:55:53 PM 33.1175 -96.4311 196° South 241 277 5,100 -1,350 Descending Fort Worth Center
Sat 06:56:53 PM 33.0572 -96.4492 194° South 235 270 4,100 -1,050 Descending Fort Worth Center
Sat 06:57:53 PM 32.9906 -96.4722 196° South 240 276 3,000 -550 Descending Fort Worth Center
Sat 06:58:53 PM 32.9303 -96.4878 192° South 240 276 3,000 18,000 Level Fort Worth Center
Sat 06:59:53 PM 32.8636 -96.5083 195° South 240 276 39,000 18,000 Climbing Fort Worth Center
Sat 07:00:53 PM 32.7947 -96.5261 192° South 240 276 39,000  Level Fort Worth Center
Sat 07:01:53 PM 32.7281 -96.5467 195° South 240 276 39,000  Level Fort Worth Center
Sat 07:02:53 PM 32.7281 -96.5467 148° Southeast 240 276 39,000  Level Fort Worth Center
Sat 07:05:00 PM 32.7333 -96.5167 40° Northeast  Level FlightAware Approximate
Sat 07:12:00 PM 32.7470 -96.5304 40° Northeast  Level Estimated
Sat 07:13:00 PM 32.7470 -96.5304 40° Northeast  Level Estimated
Sat 07:14:00 PM 32.7470 -96.5304 40° Northeast  Level Estimated
Sat 07:15:00 PM 32.7470 -96.5304 40° Northeast  Level Estimated
Sat 07:16:00 PM 32.7470 -96.5304 40° Northeast  Level Estimated

Login

Don't have an account? Register now (free) for customized features, flight alerts, and more!